Time;durP1;ratioP1;P1;durP2;ratioP2;P2;SDS_P1;SDS_P2;PMS_P1;PMS_P2;Temp;Humidity;BMP_temperature;BMP_pressure;BME280_temperature;BME280_humidity;BME280_pressure;Samples;Min_cycle;Max_cycle;Signal;HPM_P1;HPM_P2
2022/04/06 00:02:12;;;;;;;2.63;0.73;;;10.70;99.90;;;;;;5019951;28;20118;-58
2022/04/06 00:04:39;;;;;;;2.65;1.10;;;10.70;99.90;;;;;;5019039;28;20344;-58
2022/04/06 00:07:06;;;;;;;1.55;0.60;;;10.70;99.90;;;;;;5017610;28;20069;-57
2022/04/06 00:09:37;;;;;;;2.42;0.60;;;10.70;99.90;;;;;;5023121;28;20085;-57
2022/04/06 00:12:04;;;;;;;2.22;0.90;;;10.70;99.90;;;;;;5023669;28;20564;-58
2022/04/06 00:14:31;;;;;;;2.47;0.60;;;10.70;99.90;;;;;;5021911;28;20676;-58
2022/04/06 00:17:03;;;;;;;1.02;0.70;;;10.70;99.90;;;;;;5016328;28;20136;-58
2022/04/06 00:19:33;;;;;;;0.87;0.40;;;10.80;99.90;;;;;;5020272;28;20720;-58
2022/04/06 00:22:00;;;;;;;1.08;0.60;;;10.70;99.90;;;;;;5018049;28;20088;-58
2022/04/06 00:24:27;;;;;;;1.92;0.50;;;10.80;99.90;;;;;;5017074;28;20049;-57
2022/04/06 00:26:54;;;;;;;2.13;0.55;;;10.80;99.90;;;;;;5023329;28;20073;-57
2022/04/06 00:29:21;;;;;;;1.70;0.55;;;10.80;99.90;;;;;;5023578;28;20041;-57
2022/04/06 00:31:48;;;;;;;2.65;0.80;;;10.70;99.90;;;;;;5019963;28;20093;-57
2022/04/06 00:34:14;;;;;;;4.07;0.73;;;10.80;99.90;;;;;;5021064;28;20540;-57
2022/04/06 00:36:41;;;;;;;1.55;0.70;;;10.70;99.90;;;;;;5016363;28;20080;-58
2022/04/06 00:39:08;;;;;;;0.73;0.30;;;10.80;99.90;;;;;;5019038;28;20140;-58
2022/04/06 00:41:36;;;;;;;1.38;0.47;;;10.80;99.90;;;;;;5023024;28;20084;-58
2022/04/06 00:44:11;;;;;;;1.25;0.40;;;10.80;99.90;;;;;;5010795;28;20049;-58
2022/04/06 00:46:38;;;;;;;1.83;0.70;;;10.70;99.90;;;;;;5023216;28;20132;-58
2022/04/06 00:49:10;;;;;;;2.00;0.68;;;10.70;99.90;;;;;;5022927;28;20076;-57
2022/04/06 00:51:45;;;;;;;3.50;0.70;;;10.70;99.90;;;;;;5021234;28;20524;-58
2022/04/06 00:54:16;;;;;;;2.17;0.77;;;10.70;99.90;;;;;;5023896;28;20050;-58
2022/04/06 00:56:44;;;;;;;1.10;0.52;;;10.70;99.90;;;;;;5009604;28;20255;-58
2022/04/06 00:59:10;;;;;;;2.65;0.80;;;10.70;99.90;;;;;;5006551;28;20144;-57
2022/04/06 01:01:37;;;;;;;0.90;0.50;;;10.70;99.90;;;;;;5022402;28;20112;-59
2022/04/06 01:04:04;;;;;;;2.83;0.60;;;10.70;99.90;;;;;;5019798;28;20150;-58
2022/04/06 01:06:31;;;;;;;1.40;0.40;;;10.70;99.90;;;;;;5016306;28;20069;-59
2022/04/06 01:08:58;;;;;;;2.08;0.52;;;10.60;99.90;;;;;;5017056;28;20045;-57
2022/04/06 01:11:25;;;;;;;1.33;0.50;;;10.60;99.90;;;;;;5017666;28;20172;-58
2022/04/06 01:13:52;;;;;;;1.00;0.40;;;10.60;99.90;;;;;;5021812;28;20045;-58
2022/04/06 01:16:19;;;;;;;0.90;0.30;;;10.60;99.90;;;;;;5006672;28;20073;-58
2022/04/06 01:18:45;;;;;;;1.13;0.50;;;10.50;99.90;;;;;;5024355;28;20049;-56
2022/04/06 01:21:13;;;;;;;1.00;0.47;;;10.40;99.90;;;;;;5026873;28;20136;-58
2022/04/06 01:23:43;;;;;;;2.00;0.77;;;10.40;99.90;;;;;;5024936;28;20079;-58
2022/04/06 01:26:11;;;;;;;1.15;0.40;;;10.30;99.90;;;;;;5026832;28;20127;-59
2022/04/06 01:28:38;;;;;;;0.65;0.30;;;10.30;99.90;;;;;;5009005;28;20137;-58
2022/04/06 01:31:04;;;;;;;1.67;0.45;;;10.20;99.90;;;;;;5008363;28;20129;-58
2022/04/06 01:33:31;;;;;;;2.65;0.77;;;10.20;99.90;;;;;;5027820;28;20153;-58
2022/04/06 01:35:59;;;;;;;1.27;0.45;;;10.10;99.90;;;;;;5008415;28;20099;-58
2022/04/06 01:38:26;;;;;;;1.40;0.50;;;10.10;99.90;;;;;;5017979;28;20591;-58
2022/04/06 01:40:53;;;;;;;0.60;0.40;;;10.10;99.90;;;;;;5028270;28;20077;-58
2022/04/06 01:43:20;;;;;;;3.20;0.50;;;10.00;99.90;;;;;;5026558;28;20623;-58
2022/04/06 01:45:47;;;;;;;3.00;0.73;;;10.10;99.90;;;;;;5010430;28;20129;-58
2022/04/06 01:48:15;;;;;;;2.03;0.70;;;10.10;99.90;;;;;;5010070;28;20052;-57
2022/04/06 01:53:28;;;;;;;1.00;0.60;;;10.10;99.90;;;;;;5022143;28;20084;-58
2022/04/06 01:55:55;;;;;;;2.05;0.82;;;10.00;99.90;;;;;;5026823;28;20334;-58
2022/04/06 01:58:22;;;;;;;1.02;0.57;;;10.00;99.90;;;;;;5015830;28;20128;-57
2022/04/06 02:00:50;;;;;;;1.17;0.50;;;10.00;99.90;;;;;;5011616;28;20393;-58
2022/04/06 02:03:16;;;;;;;0.90;0.40;;;9.90;99.90;;;;;;5018718;28;20054;-58
2022/04/06 02:05:43;;;;;;;2.25;0.70;;;9.90;99.90;;;;;;5006762;28;20433;-58
2022/04/06 02:08:11;;;;;;;0.77;0.45;;;9.90;99.90;;;;;;5017167;28;20124;-58
2022/04/06 02:10:39;;;;;;;1.63;0.50;;;9.80;99.90;;;;;;5015629;28;20077;-58
2022/04/06 02:13:06;;;;;;;1.58;0.60;;;9.80;99.90;;;;;;5020853;28;20063;-58
2022/04/06 02:15:33;;;;;;;0.75;0.50;;;9.80;99.90;;;;;;5020534;28;20049;-58
2022/04/06 02:18:00;;;;;;;0.85;0.50;;;9.80;99.90;;;;;;5015392;28;20120;-58
2022/04/06 02:20:27;;;;;;;1.80;0.70;;;9.70;99.90;;;;;;5026199;28;20092;-58
2022/04/06 02:22:54;;;;;;;2.15;0.50;;;9.70;99.90;;;;;;5026000;28;20120;-57
2022/04/06 02:25:20;;;;;;;1.98;0.70;;;9.60;99.90;;;;;;5019038;28;20450;-58
2022/04/06 02:27:48;;;;;;;1.27;0.40;;;9.60;99.90;;;;;;5006665;28;20089;-58
2022/04/06 02:30:15;;;;;;;0.50;0.43;;;9.60;99.90;;;;;;5019466;28;20084;-58
2022/04/06 02:32:41;;;;;;;0.75;0.38;;;9.60;99.90;;;;;;5025648;28;20132;-57
2022/04/06 02:35:08;;;;;;;0.30;0.30;;;9.50;99.90;;;;;;5025751;28;20128;-60
2022/04/06 02:37:35;;;;;;;2.35;0.70;;;9.50;99.90;;;;;;5025721;28;20127;-58
2022/04/06 02:40:04;;;;;;;2.53;1.80;;;9.50;99.90;;;;;;5013952;28;20093;-58
2022/04/06 02:42:31;;;;;;;3.25;0.95;;;9.50;99.90;;;;;;5025382;28;20107;-58
2022/04/06 02:44:57;;;;;;;1.75;0.60;;;9.50;99.90;;;;;;5024437;28;20462;-57
2022/04/06 02:47:24;;;;;;;1.30;0.57;;;9.50;99.90;;;;;;5025341;28;20058;-59
2022/04/06 02:49:51;;;;;;;2.50;1.08;;;9.50;99.90;;;;;;5014691;28;20072;-58
2022/04/06 02:52:18;;;;;;;1.85;0.50;;;9.50;99.90;;;;;;5005944;28;20667;-58
2022/04/06 02:54:44;;;;;;;1.48;0.60;;;9.50;99.90;;;;;;5006313;28;20121;-58
2022/04/06 02:57:11;;;;;;;3.75;0.75;;;9.50;99.90;;;;;;5022848;28;20093;-56
2022/04/06 02:59:40;;;;;;;2.13;0.73;;;9.50;99.90;;;;;;5023243;28;20092;-57
2022/04/06 03:02:07;;;;;;;1.88;0.80;;;9.60;99.90;;;;;;5025204;28;20119;-58
2022/04/06 03:04:34;;;;;;;3.03;0.57;;;9.60;99.90;;;;;;5023322;28;20051;-58
2022/04/06 03:07:00;;;;;;;2.13;0.90;;;9.60;99.90;;;;;;5014000;28;20104;-58
2022/04/06 03:09:27;;;;;;;2.05;0.90;;;9.50;99.90;;;;;;5014381;28;20085;-58
2022/04/06 03:11:54;;;;;;;2.72;0.88;;;9.50;99.90;;;;;;5019898;28;20128;-58
2022/04/06 03:14:20;;;;;;;2.90;0.52;;;9.50;99.90;;;;;;5024985;28;20053;-58
2022/04/06 03:16:47;;;;;;;2.67;0.65;;;9.60;99.90;;;;;;5014960;28;20436;-58
2022/04/06 03:19:14;;;;;;;2.53;0.70;;;9.60;99.90;;;;;;5010560;28;20055;-57
2022/04/06 03:21:41;;;;;;;4.35;0.88;;;9.50;99.90;;;;;;5024123;28;20128;-58
2022/04/06 03:24:07;;;;;;;2.28;0.90;;;9.60;99.90;;;;;;5024892;28;20089;-58
2022/04/06 03:26:34;;;;;;;2.30;0.77;;;9.60;99.90;;;;;;5019396;28;20077;-57
2022/04/06 03:29:01;;;;;;;2.42;0.57;;;9.50;99.90;;;;;;5024571;28;20084;-58
2022/04/06 03:31:28;;;;;;;6.05;1.45;;;9.50;99.90;;;;;;5020456;28;20407;-58
2022/04/06 03:33:54;;;;;;;2.00;0.80;;;9.50;99.90;;;;;;5020622;28;20090;-58
2022/04/06 03:36:21;;;;;;;3.15;1.13;;;9.60;99.90;;;;;;5021517;28;20088;-57
2022/04/06 03:38:48;;;;;;;4.38;0.93;;;9.60;99.90;;;;;;5020354;28;20128;-58
2022/04/06 03:41:15;;;;;;;2.10;0.80;;;9.60;99.90;;;;;;5016050;28;20136;-57
2022/04/06 03:43:41;;;;;;;3.25;0.80;;;9.60;99.90;;;;;;5024002;28;20049;-58
2022/04/06 03:46:08;;;;;;;2.28;0.90;;;9.60;99.90;;;;;;5020089;28;20120;-58
2022/04/06 03:48:35;;;;;;;3.00;0.90;;;9.60;99.90;;;;;;5023372;28;20107;-58
2022/04/06 03:51:02;;;;;;;4.10;0.90;;;9.70;99.90;;;;;;5019306;28;20648;-59
2022/04/06 03:53:29;;;;;;;5.93;1.35;;;9.70;99.90;;;;;;5014868;28;20633;-57
2022/04/06 03:55:56;;;;;;;4.03;1.75;;;9.70;99.90;;;;;;5024431;28;20042;-58
2022/04/06 03:58:22;;;;;;;2.90;0.80;;;9.80;99.90;;;;;;5023694;28;20089;-59
2022/04/06 04:00:49;;;;;;;4.22;1.35;;;9.80;99.90;;;;;;5023582;28;20540;-58
2022/04/06 04:03:16;;;;;;;4.78;1.30;;;9.80;99.90;;;;;;5021150;28;20164;-58
2022/04/06 04:05:43;;;;;;;3.35;0.95;;;9.90;99.90;;;;;;5022192;28;20053;-59
2022/04/06 04:08:09;;;;;;;4.78;1.40;;;9.90;99.90;;;;;;5006888;28;20077;-58
2022/04/06 04:10:36;;;;;;;4.45;1.02;;;9.90;99.90;;;;;;5004589;28;20076;-58
2022/04/06 04:13:03;;;;;;;3.15;1.42;;;10.00;99.90;;;;;;5011081;28;20151;-59
2022/04/06 04:15:31;;;;;;;5.97;1.33;;;10.00;99.90;;;;;;5022862;28;20186;-58
2022/04/06 04:17:58;;;;;;;4.03;1.15;;;10.10;99.90;;;;;;5021742;28;20133;-57
2022/04/06 04:20:25;;;;;;;4.78;1.45;;;10.10;99.90;;;;;;5005046;28;20443;-58
2022/04/06 04:22:52;;;;;;;1.90;0.93;;;10.10;99.90;;;;;;5007647;28;20424;-58
2022/04/06 04:25:18;;;;;;;4.72;1.02;;;10.20;99.90;;;;;;5022407;28;20124;-58
2022/04/06 04:27:45;;;;;;;4.28;0.98;;;10.10;99.90;;;;;;5019336;28;20634;-57
2022/04/06 04:30:12;;;;;;;3.97;1.30;;;10.20;99.90;;;;;;5008747;28;20081;-57
2022/04/06 04:32:39;;;;;;;3.28;1.05;;;10.20;99.90;;;;;;5018337;28;20212;-58
2022/04/06 04:35:08;;;;;;;2.58;1.08;;;10.20;99.90;;;;;;5008952;28;20137;-58
2022/04/06 04:37:35;;;;;;;5.28;1.30;;;10.20;99.90;;;;;;5016403;28;20087;-58
2022/04/06 04:40:03;;;;;;;4.47;1.33;;;10.20;99.90;;;;;;5023460;28;20081;-56
2022/04/06 04:42:30;;;;;;;2.65;1.00;;;10.20;99.90;;;;;;5005461;28;20129;-58
2022/04/06 04:44:57;;;;;;;5.10;1.40;;;10.20;99.90;;;;;;5023283;28;20168;-57
2022/04/06 04:47:24;;;;;;;4.32;1.20;;;10.20;99.90;;;;;;5023863;28;20069;-58
2022/04/06 04:49:50;;;;;;;2.75;1.25;;;10.30;99.90;;;;;;5009501;28;20125;-58
2022/04/06 04:52:17;;;;;;;3.63;1.40;;;10.30;99.90;;;;;;5006628;28;20133;-58
2022/04/06 04:54:44;;;;;;;3.08;1.23;;;10.30;99.90;;;;;;5019151;28;20132;-58
2022/04/06 04:57:10;;;;;;;3.85;1.52;;;10.30;99.90;;;;;;5006490;28;20418;-58
2022/04/06 04:59:37;;;;;;;6.13;1.27;;;10.40;99.90;;;;;;5013703;28;20156;-57
2022/04/06 05:02:04;;;;;;;4.07;1.30;;;10.40;99.90;;;;;;5020546;28;20092;-58
2022/04/06 05:04:31;;;;;;;3.17;1.20;;;10.40;99.90;;;;;;5022329;28;20115;-58
2022/04/06 05:06:58;;;;;;;3.47;1.30;;;10.40;99.90;;;;;;5022921;28;20049;-57
2022/04/06 05:09:25;;;;;;;4.38;1.20;;;10.50;99.90;;;;;;5019612;28;20540;-58
2022/04/06 05:11:51;;;;;;;5.50;1.30;;;10.50;99.90;;;;;;5026432;28;20202;-55
2022/04/06 05:14:18;;;;;;;3.17;1.05;;;10.50;99.90;;;;;;5035342;28;20057;-58
2022/04/06 05:16:45;;;;;;;4.28;1.58;;;10.50;99.90;;;;;;5025636;28;20049;-57
2022/04/06 05:19:12;;;;;;;4.18;1.05;;;10.50;99.90;;;;;;5029875;28;20463;-58
2022/04/06 05:21:38;;;;;;;3.35;1.35;;;10.50;99.90;;;;;;5032778;28;20129;-58
2022/04/06 05:24:05;;;;;;;4.68;1.42;;;10.50;99.90;;;;;;5026822;28;20164;-58
2022/04/06 05:26:39;;;;;;;6.55;1.65;;;10.60;99.90;;;;;;5031388;28;20048;-58
2022/04/06 05:29:06;;;;;;;3.22;1.23;;;10.60;99.90;;;;;;5027001;28;20076;-57
2022/04/06 05:31:32;;;;;;;4.72;2.08;;;10.60;99.90;;;;;;5012615;28;20158;-57
2022/04/06 05:33:59;;;;;;;2.60;1.00;;;10.60;99.90;;;;;;5010932;28;20049;-58
2022/04/06 05:36:28;;;;;;;5.72;1.30;;;10.60;99.90;;;;;;5001317;28;20156;-58
2022/04/06 05:38:56;;;;;;;3.72;1.33;;;10.70;99.90;;;;;;5008150;28;20414;-58
2022/04/06 05:41:23;;;;;;;3.92;1.20;;;10.70;99.90;;;;;;5001440;28;20057;-58
2022/04/06 05:43:50;;;;;;;5.28;1.50;;;10.70;99.90;;;;;;5017887;28;20122;-57
2022/04/06 05:46:16;;;;;;;3.25;1.33;;;10.70;99.90;;;;;;5018865;28;20045;-57
2022/04/06 05:48:43;;;;;;;4.80;1.42;;;10.70;99.90;;;;;;5017525;28;20091;-59
2022/04/06 05:51:10;;;;;;;4.00;1.23;;;10.70;99.90;;;;;;5011014;28;20077;-59
2022/04/06 05:53:37;;;;;;;5.25;1.80;;;10.70;99.90;;;;;;5019420;28;20057;-59
2022/04/06 05:56:04;;;;;;;4.32;1.25;;;10.80;99.90;;;;;;5002922;28;20077;-58
2022/04/06 05:58:31;;;;;;;2.92;1.38;;;10.80;99.90;;;;;;4999335;28;20061;-58
2022/04/06 06:00:58;;;;;;;2.80;1.10;;;10.80;99.90;;;;;;5005800;28;20073;-59
2022/04/06 06:03:25;;;;;;;3.97;1.73;;;10.80;99.90;;;;;;5004842;28;20053;-58
2022/04/06 06:05:53;;;;;;;3.33;1.40;;;10.80;99.90;;;;;;5012727;28;20158;-58
2022/04/06 06:08:20;;;;;;;2.35;1.00;;;10.80;99.90;;;;;;5017294;28;20145;-57
2022/04/06 06:10:47;;;;;;;3.90;1.00;;;10.90;99.90;;;;;;5017947;28;20128;-59
2022/04/06 06:13:13;;;;;;;3.25;1.15;;;10.90;99.90;;;;;;5018545;28;20108;-58
2022/04/06 06:15:40;;;;;;;3.53;1.15;;;10.90;99.90;;;;;;5005233;28;20049;-59
2022/04/06 06:18:08;;;;;;;4.78;1.48;;;10.90;99.90;;;;;;5010802;28;20052;-58
2022/04/06 06:20:35;;;;;;;4.22;1.17;;;11.00;99.90;;;;;;5013837;28;20748;-59
2022/04/06 06:23:02;;;;;;;3.97;1.20;;;11.00;99.90;;;;;;5019106;28;20476;-59
2022/04/06 06:25:29;;;;;;;2.75;1.15;;;11.00;99.90;;;;;;5018320;28;20497;-59
2022/04/06 06:27:55;;;;;;;3.08;1.27;;;11.10;99.90;;;;;;5018742;28;20188;-59
2022/04/06 06:30:26;;;;;;;4.22;1.10;;;11.20;99.90;;;;;;5018267;28;20576;-59
2022/04/06 06:32:54;;;;;;;2.17;0.95;;;11.20;99.90;;;;;;5019098;28;20185;-59
2022/04/06 06:35:21;;;;;;;3.67;1.00;;;11.30;99.90;;;;;;5019244;28;20096;-59
2022/04/06 06:37:48;;;;;;;2.85;0.95;;;11.40;99.90;;;;;;5017845;28;20081;-59
2022/04/06 06:40:17;;;;;;;2.00;1.08;;;11.40;99.90;;;;;;5018034;28;20056;-60
2022/04/06 06:42:43;;;;;;;3.60;0.98;;;11.50;99.90;;;;;;5018096;28;20137;-59
2022/04/06 06:45:11;;;;;;;5.22;1.40;;;11.60;99.90;;;;;;5019324;28;20148;-59
2022/04/06 06:47:40;;;;;;;5.10;1.60;;;11.70;99.90;;;;;;5019287;28;20049;-58
2022/04/06 06:50:08;;;;;;;4.63;1.00;;;11.80;99.90;;;;;;5019025;28;20140;-59
2022/04/06 06:52:35;;;;;;;3.40;1.55;;;11.80;99.90;;;;;;5017202;28;20156;-58
2022/04/06 06:55:03;;;;;;;2.50;1.17;;;11.90;99.90;;;;;;5018680;28;20052;-58
2022/04/06 06:57:30;;;;;;;3.75;1.02;;;11.90;99.90;;;;;;5003235;28;20181;-58
2022/04/06 06:59:57;;;;;;;5.53;1.55;;;11.90;99.90;;;;;;5014336;28;20465;-58
2022/04/06 07:02:23;;;;;;;3.60;1.08;;;11.90;99.90;;;;;;5012035;28;20141;-59
2022/04/06 07:04:50;;;;;;;3.47;1.35;;;11.90;99.90;;;;;;5006109;28;20522;-59
2022/04/06 07:07:17;;;;;;;3.42;1.00;;;11.80;99.90;;;;;;4999068;28;20141;-59
2022/04/06 07:09:44;;;;;;;3.75;1.00;;;11.90;99.90;;;;;;5011329;28;20646;-59
2022/04/06 07:12:11;;;;;;;2.08;0.90;;;11.90;99.90;;;;;;5006735;28;20136;-58
2022/04/06 07:14:38;;;;;;;3.58;1.20;;;11.90;99.90;;;;;;5014349;28;20140;-59
2022/04/06 07:17:04;;;;;;;4.07;1.30;;;11.80;99.90;;;;;;5007635;28;20124;-59
2022/04/06 07:19:31;;;;;;;5.55;1.20;;;11.80;99.90;;;;;;5013746;28;20045;-58
2022/04/06 07:21:58;;;;;;;4.20;1.40;;;11.80;99.90;;;;;;5038567;28;20080;-59
2022/04/06 07:24:25;;;;;;;4.97;1.50;;;11.70;99.90;;;;;;5029635;28;20141;-58
2022/04/06 07:26:51;;;;;;;2.88;1.10;;;11.60;99.90;;;;;;5006586;28;20444;-58
2022/04/06 07:29:18;;;;;;;3.72;1.45;;;11.70;99.90;;;;;;5004949;28;20057;-59
2022/04/06 07:31:45;;;;;;;5.90;1.55;;;11.70;99.90;;;;;;5005479;28;20128;-59
2022/04/06 07:34:12;;;;;;;4.00;1.35;;;11.70;99.90;;;;;;5002647;28;20050;-59
2022/04/06 07:36:39;;;;;;;3.15;1.30;;;11.70;99.90;;;;;;4998394;28;20132;-58
2022/04/06 07:39:06;;;;;;;4.78;1.38;;;11.60;99.90;;;;;;5002093;28;20188;-59
2022/04/06 07:41:32;;;;;;;3.45;1.60;;;11.60;99.90;;;;;;5001111;28;20085;-59
2022/04/06 07:43:59;;;;;;;4.43;1.15;;;11.60;99.90;;;;;;5010285;28;20773;-58
2022/04/06 07:46:26;;;;;;;3.92;1.10;;;11.60;99.90;;;;;;5017558;28;20139;-58
2022/04/06 07:48:53;;;;;;;3.60;1.10;;;11.60;99.90;;;;;;5016221;28;20231;-59
2022/04/06 07:51:19;;;;;;;3.40;1.23;;;11.60;99.90;;;;;;5005428;28;20274;-58
2022/04/06 07:53:46;;;;;;;2.28;1.20;;;11.70;99.90;;;;;;5006536;28;20159;-58
2022/04/06 07:56:18;;;;;;;2.30;1.40;;;11.70;99.90;;;;;;5017155;28;20417;-59
2022/04/06 07:58:44;;;;;;;3.08;1.20;;;11.70;99.90;;;;;;5002918;28;20146;-58
2022/04/06 08:01:11;;;;;;;2.45;1.02;;;11.60;99.90;;;;;;5016943;28;20140;-59
2022/04/06 08:03:38;;;;;;;4.15;1.08;;;11.70;99.90;;;;;;5017111;28;20100;-58
2022/04/06 08:06:05;;;;;;;3.35;1.00;;;11.70;99.90;;;;;;5001635;28;20141;-59
2022/04/06 08:08:33;;;;;;;2.35;0.98;;;11.80;99.90;;;;;;4997652;28;20108;-59
2022/04/06 08:10:59;;;;;;;2.78;1.00;;;11.80;99.90;;;;;;5029520;28;20126;-59
2022/04/06 08:13:26;;;;;;;2.95;1.00;;;11.90;99.90;;;;;;5020181;28;20081;-59
2022/04/06 08:15:54;;;;;;;1.58;0.70;;;11.80;99.90;;;;;;5001388;28;20058;-59
2022/04/06 08:18:22;;;;;;;1.42;0.80;;;11.80;99.90;;;;;;5031810;28;20053;-59
2022/04/06 08:20:49;;;;;;;1.88;0.95;;;11.70;99.90;;;;;;5026267;28;20052;-59
2022/04/06 08:23:17;;;;;;;1.75;0.82;;;11.70;99.90;;;;;;5034972;28;20457;-59
2022/04/06 08:25:44;;;;;;;2.60;0.68;;;11.70;99.90;;;;;;5022561;28;20064;-57
2022/04/06 08:28:11;;;;;;;2.75;0.75;;;11.60;99.90;;;;;;5003357;28;20077;-59
2022/04/06 08:30:41;;;;;;;1.52;0.90;;;11.60;99.90;;;;;;5010111;28;20140;-59
2022/04/06 08:33:09;;;;;;;1.58;0.90;;;11.50;99.90;;;;;;5032266;28;20421;-58
2022/04/06 08:35:36;;;;;;;1.95;0.95;;;11.40;99.90;;;;;;5008106;28;20049;-59
2022/04/06 08:38:06;;;;;;;2.30;0.88;;;11.40;99.90;;;;;;5041529;28;20638;-59
2022/04/06 08:40:35;;;;;;;2.72;0.90;;;11.30;99.90;;;;;;5025408;28;20107;-59
2022/04/06 08:43:01;;;;;;;2.17;0.98;;;11.20;99.90;;;;;;5021440;28;20084;-59
2022/04/06 08:45:28;;;;;;;0.77;0.50;;;11.30;99.90;;;;;;5014816;28;20141;-61
2022/04/06 08:47:55;;;;;;;1.77;0.77;;;11.20;99.90;;;;;;5025684;28;20046;-60
2022/04/06 08:50:22;;;;;;;1.20;0.73;;;11.20;99.90;;;;;;5012578;28;20148;-60
2022/04/06 08:52:48;;;;;;;2.13;0.70;;;11.20;99.90;;;;;;5004106;28;20136;-60
2022/04/06 08:55:31;;;;;;;2.35;1.25;;;11.20;99.90;;;;;;5019944;28;20081;-59
2022/04/06 08:57:58;;;;;;;3.00;0.70;;;11.30;99.90;;;;;;5011055;28;20086;-59
2022/04/06 09:00:26;;;;;;;1.45;0.70;;;11.40;99.90;;;;;;5014707;28;20231;-59
2022/04/06 09:02:53;;;;;;;3.22;0.90;;;11.50;99.90;;;;;;5020681;28;20123;-59
2022/04/06 09:05:21;;;;;;;1.92;0.70;;;11.60;99.90;;;;;;4983902;28;20108;-59
2022/04/06 09:07:51;;;;;;;2.78;0.90;;;11.70;99.90;;;;;;5004381;28;20107;-59
2022/04/06 09:10:29;;;;;;;1.67;0.85;;;11.80;99.90;;;;;;5012860;28;20045;-59
2022/04/06 09:13:18;;;;;;;1.23;0.70;;;12.00;99.90;;;;;;5008728;28;20064;-59
2022/04/06 09:15:45;;;;;;;2.45;0.85;;;12.20;99.90;;;;;;5010851;28;20046;-59
2022/04/06 09:18:12;;;;;;;2.03;0.75;;;12.40;99.90;;;;;;5016828;28;20123;-59
2022/04/06 09:20:39;;;;;;;1.88;0.63;;;12.50;99.90;;;;;;5015692;28;20133;-59
2022/04/06 09:23:07;;;;;;;2.92;1.00;;;12.70;99.90;;;;;;5005120;28;20166;-59
2022/04/06 09:25:38;;;;;;;1.40;0.80;;;12.70;99.90;;;;;;5032290;28;20049;-59
2022/04/06 09:28:09;;;;;;;4.45;1.00;;;12.80;99.90;;;;;;5013541;28;20445;-59
2022/04/06 09:30:46;;;;;;;1.60;0.80;;;12.80;99.90;;;;;;5004985;28;20176;-59
2022/04/06 09:33:18;;;;;;;3.50;1.73;;;12.90;99.90;;;;;;5008372;28;20057;-59
2022/04/06 09:35:45;;;;;;;1.15;0.60;;;12.90;99.90;;;;;;5003253;28;20065;-57
2022/04/06 09:38:16;;;;;;;2.30;0.88;;;13.00;99.90;;;;;;5011713;28;20397;-59
2022/04/06 09:40:43;;;;;;;1.83;0.80;;;13.10;99.90;;;;;;5016814;28;21199;-58
2022/04/06 09:43:23;;;;;;;1.77;1.00;;;13.20;99.90;;;;;;5009998;28;20136;-57
2022/04/06 09:48:56;;;;;;;4.40;1.23;;;13.30;99.90;;;;;;5029040;28;20067;-57
2022/04/06 09:51:23;;;;;;;2.45;0.75;;;13.20;99.90;;;;;;5003582;28;20403;-60
2022/04/06 09:53:51;;;;;;;2.58;0.85;;;13.20;99.90;;;;;;5027325;28;20049;-60
2022/04/06 09:56:19;;;;;;;4.15;1.20;;;13.30;99.90;;;;;;5008296;28;20156;-59
2022/04/06 09:58:46;;;;;;;1.60;0.85;;;13.30;99.90;;;;;;5008776;28;20132;-59
2022/04/06 10:01:14;;;;;;;3.33;1.00;;;13.40;99.90;;;;;;5004198;28;20147;-59
2022/04/06 10:03:44;;;;;;;2.45;0.98;;;13.50;99.90;;;;;;5018727;28;20313;-59
2022/04/06 10:06:11;;;;;;;2.83;1.00;;;13.50;99.90;;;;;;5001310;28;20156;-61
2022/04/06 10:08:42;;;;;;;3.50;1.52;;;13.50;99.90;;;;;;5012415;28;20068;-59
2022/04/06 10:11:10;;;;;;;4.53;1.38;;;13.50;99.90;;;;;;5007538;28;20056;-60
2022/04/06 10:13:38;;;;;;;3.80;1.00;;;13.50;99.90;;;;;;4992933;28;20079;-59
2022/04/06 10:16:16;;;;;;;3.17;0.88;;;13.60;99.90;;;;;;5002778;28;20053;-59
2022/04/06 10:18:44;;;;;;;3.40;0.90;;;13.70;99.90;;;;;;5015615;28;20058;-59
2022/04/06 10:21:35;;;;;;;2.65;1.05;;;13.80;99.90;;;;;;5011418;28;20046;-60
2022/04/06 10:24:42;;;;;;;1.85;1.00;;;13.80;99.90;;;;;;5018531;28;20107;-59
2022/04/06 10:27:15;;;;;;;2.75;0.90;;;13.90;99.90;;;;;;5008691;28;20178;-59
2022/04/06 10:30:15;;;;;;;3.92;0.90;;;14.10;99.90;;;;;;5015089;28;20645;-59
2022/04/06 10:32:43;;;;;;;2.55;1.23;;;14.10;99.90;;;;;;5014873;28;20077;-59
2022/04/06 10:35:33;;;;;;;2.47;1.30;;;14.20;99.90;;;;;;5020611;28;20079;-59
2022/04/06 10:38:03;;;;;;;4.07;1.33;;;14.20;99.90;;;;;;5004763;28;20135;-59
2022/04/06 10:40:45;;;;;;;2.50;0.93;;;14.10;99.90;;;;;;5017300;28;20132;-65
2022/04/06 10:43:38;;;;;;;2.22;1.00;;;14.10;99.90;;;;;;5008294;28;20067;-59
2022/04/06 10:46:15;;;;;;;4.60;1.33;;;14.10;99.90;;;;;;5014768;28;20134;-59
2022/04/06 10:49:06;;;;;;;2.75;1.00;;;14.00;99.90;;;;;;5000172;28;20064;-58
2022/04/06 10:51:38;;;;;;;1.92;1.00;;;13.90;99.90;;;;;;5009141;28;20103;-59
2022/04/06 10:54:14;;;;;;;3.75;1.40;;;13.80;99.90;;;;;;5010712;28;20136;-59
2022/04/06 10:56:50;;;;;;;3.55;1.35;;;13.80;99.90;;;;;;5008159;28;20133;-59
2022/04/06 10:59:17;;;;;;;5.90;1.38;;;13.80;99.90;;;;;;5010363;28;20495;-59
2022/04/06 11:01:46;;;;;;;3.38;1.30;;;13.80;99.90;;;;;;5004178;28;20132;-59
2022/04/06 11:04:18;;;;;;;5.20;1.30;;;13.70;99.90;;;;;;5008125;28;20049;-59
2022/04/06 11:07:08;;;;;;;4.32;1.65;;;13.80;99.90;;;;;;5013155;28;20465;-59
2022/04/06 11:12:20;;;;;;;3.83;1.13;;;14.10;99.90;;;;;;5025826;28;20115;-60
2022/04/06 11:14:57;;;;;;;3.05;1.20;;;14.30;99.90;;;;;;5016411;28;20053;-59
2022/04/06 11:17:32;;;;;;;2.72;1.13;;;14.30;99.90;;;;;;5017816;28;20069;-59
2022/04/06 11:20:13;;;;;;;4.05;0.98;;;14.50;99.90;;;;;;5012517;28;20049;-59
2022/04/06 11:22:50;;;;;;;3.10;1.10;;;14.80;99.90;;;;;;5007338;28;20315;-59
2022/04/06 11:25:17;;;;;;;2.60;0.95;;;14.90;99.90;;;;;;5009299;28;20413;-59
2022/04/06 11:27:45;;;;;;;1.75;0.70;;;15.00;99.90;;;;;;5005575;28;20121;-59
2022/04/06 11:30:16;;;;;;;2.40;0.93;;;15.10;99.90;;;;;;5019860;28;20449;-59
2022/04/06 11:32:51;;;;;;;1.55;0.70;;;15.10;99.90;;;;;;5017970;28;20135;-57
2022/04/06 11:35:17;;;;;;;1.95;0.85;;;15.20;99.90;;;;;;5006600;28;20057;-59
2022/04/06 11:37:48;;;;;;;3.38;1.13;;;15.10;99.90;;;;;;5010067;28;20321;-59
2022/04/06 11:40:17;;;;;;;2.33;1.05;;;14.90;99.90;;;;;;5007322;28;20050;-59
2022/04/06 11:42:48;;;;;;;1.45;0.65;;;14.90;99.90;;;;;;5005867;28;20088;-59
2022/04/06 11:45:37;;;;;;;1.95;0.82;;;15.10;99.90;;;;;;4999722;28;20049;-59
2022/04/06 11:48:08;;;;;;;1.38;0.73;;;15.00;99.90;;;;;;5002863;28;20061;-59
2022/04/06 11:50:38;;;;;;;2.33;0.90;;;14.90;99.90;;;;;;5007612;28;20049;-59
2022/04/06 11:53:15;;;;;;;1.65;0.80;;;14.90;99.90;;;;;;5001942;28;20487;-59
2022/04/06 11:55:47;;;;;;;1.77;0.60;;;15.10;99.90;;;;;;5000682;28;20072;-59
2022/04/06 11:58:33;;;;;;;1.60;0.75;;;15.10;99.90;;;;;;5008770;28;20132;-59
2022/04/06 12:01:10;;;;;;;1.77;0.73;;;15.10;99.90;;;;;;4998482;28;20085;-59
2022/04/06 12:03:41;;;;;;;2.00;0.93;;;15.00;99.90;;;;;;5005108;28;20298;-59
2022/04/06 12:06:12;;;;;;;2.50;0.95;;;14.70;99.90;;;;;;5003464;28;20468;-59
2022/04/06 12:08:39;;;;;;;1.88;0.82;;;14.60;99.90;;;;;;5013622;28;20049;-58
2022/04/06 12:11:06;;;;;;;2.60;0.73;;;14.60;99.90;;;;;;5012901;28;20171;-59
2022/04/06 12:13:34;;;;;;;1.25;0.80;;;14.40;99.90;;;;;;5008813;28;20274;-59
2022/04/06 12:16:02;;;;;;;1.42;0.80;;;14.50;99.90;;;;;;4987061;28;20077;-59
2022/04/06 12:18:29;;;;;;;1.63;1.20;;;14.50;99.90;;;;;;5015638;28;20041;-59
2022/04/06 12:20:56;;;;;;;1.35;0.65;;;14.60;99.90;;;;;;5007954;28;20136;-58
2022/04/06 12:23:24;;;;;;;1.70;0.52;;;14.50;99.90;;;;;;5009796;28;20080;-59
2022/04/06 12:25:52;;;;;;;2.83;0.85;;;14.50;99.90;;;;;;5000123;28;20293;-59
2022/04/06 12:28:21;;;;;;;2.33;0.57;;;14.20;99.90;;;;;;5002324;28;20140;-59
2022/04/06 12:31:05;;;;;;;1.30;0.60;;;14.20;99.90;;;;;;5027246;28;20057;-59
2022/04/06 12:33:35;;;;;;;1.00;0.50;;;14.00;99.90;;;;;;5009367;28;20062;-59
2022/04/06 12:36:06;;;;;;;1.63;0.40;;;13.70;99.90;;;;;;5014708;28;20132;-59
2022/04/06 12:38:33;;;;;;;1.45;0.40;;;13.50;99.90;;;;;;5016179;28;20153;-59
2022/04/06 12:41:07;;;;;;;1.65;0.45;;;13.40;99.90;;;;;;5004654;28;20100;-59
2022/04/06 12:43:46;;;;;;;1.13;0.55;;;13.00;99.90;;;;;;5008696;28;20061;-60
2022/04/06 12:46:13;;;;;;;1.45;0.60;;;13.00;99.90;;;;;;5015686;28;20402;-59
2022/04/06 12:48:41;;;;;;;0.30;0.30;;;13.20;99.90;;;;;;5007632;28;20150;-59
2022/04/06 12:51:30;;;;;;;3.40;0.63;;;13.40;99.90;;;;;;5002544;28;20056;-59
2022/04/06 12:53:57;;;;;;;0.70;0.40;;;13.60;99.90;;;;;;5013289;28;20088;-59
2022/04/06 12:56:24;;;;;;;0.85;0.50;;;13.80;99.90;;;;;;5014729;28;20049;-59
2022/04/06 12:59:10;;;;;;;1.42;0.60;;;13.90;99.90;;;;;;5006051;28;20493;-59
2022/04/06 13:01:46;;;;;;;1.27;0.55;;;14.10;99.90;;;;;;5008772;28;20057;-59
2022/04/06 13:04:13;;;;;;;3.08;0.68;;;14.20;99.90;;;;;;5000766;28;20231;-59
2022/04/06 13:06:41;;;;;;;1.27;0.80;;;14.20;99.90;;;;;;5000907;28;20148;-59